»·PEaware :: N196EC KSAN-KPSP

N196EC :: KSAN-KPSP

FLIGHT INFORMATION

Flight Status: Arrived
Operator: Privately registered:
United States
More flights under this callsign
Pilot: Adrián R. (20842)
Aircraft: SOCATA TBM-900
(TBM9)
More flights by this aircraft type
Origin: KSAN San Diego Intl-Lindbergh
United States
Destination: KPSP Palm Springs Intl
United States
More flights between these airports :: More routes between these airports
Route: +BRDR7 JLI V208 TRM
File this flight plan on PilotEdge
Remarks:
Altitude:
(Current/Filed)
10,000ft
Speed:
(Current/Filed)
261kts
Departed: 26-Nov-18 08:59 AM
Arrived: 26-Nov-18 09:33 AM
Distance/Time
Traveled:
74nm/0:34
Distance/Time
To Go:
Arrived

Flight Plot

Page will automatically refresh every two minutes.


Map Options




Map Legend


Flown Route
Filed Route
Departure Airport
Arrival Airport
Navaid (VOR, NDB)
Fix

Horizontal Profiles

Position Reports

Time Latitude Longitude Heading Altitude Ground
Speed
26-Nov-18 08:28 32.732285 -117.177353 196 20ft 0kts
26-Nov-18 08:29 32.732285 -117.177353 196 20ft 0kts
26-Nov-18 08:30 32.732285 -117.177353 196 20ft 0kts
26-Nov-18 08:31 32.732285 -117.177353 196 20ft 0kts
26-Nov-18 08:32 32.732285 -117.177353 196 20ft 0kts
26-Nov-18 08:33 32.732285 -117.177353 196 20ft 0kts
26-Nov-18 08:34 32.732285 -117.177353 196 20ft 0kts
26-Nov-18 08:35 32.732285 -117.177353 196 20ft 0kts
26-Nov-18 08:36 32.732285 -117.177353 196 20ft 0kts
26-Nov-18 08:37 32.732285 -117.177353 196 20ft 0kts
26-Nov-18 08:38 32.732285 -117.177353 196 20ft 0kts
26-Nov-18 08:39 32.732285 -117.177353 196 20ft 0kts
26-Nov-18 08:40 32.732285 -117.177353 196 20ft 0kts
26-Nov-18 08:41 32.732285 -117.177353 196 20ft 0kts
26-Nov-18 08:42 32.732285 -117.177353 196 20ft 0kts
26-Nov-18 08:43 32.732285 -117.177353 196 20ft 0kts
26-Nov-18 08:44 32.732285 -117.177353 196 20ft 0kts
26-Nov-18 08:45 32.732285 -117.177353 196 20ft 0kts
26-Nov-18 08:46 32.732285 -117.177353 196 20ft 0kts
26-Nov-18 08:47 32.732285 -117.177353 196 20ft 0kts
26-Nov-18 08:48 32.732285 -117.177353 196 20ft 0kts
26-Nov-18 08:49 32.732285 -117.177353 196 20ft 0kts
26-Nov-18 08:50 32.732285 -117.177353 196 20ft 0kts
26-Nov-18 08:51 32.732285 -117.177353 196 20ft 0kts
26-Nov-18 08:52 32.732285 -117.177353 196 20ft 0kts
26-Nov-18 08:53 32.732285 -117.177353 196 20ft 0kts
26-Nov-18 08:54 32.732285 -117.177353 196 20ft 0kts
26-Nov-18 08:55 32.732285 -117.177353 196 20ft 0kts
26-Nov-18 08:56 32.732285 -117.177353 196 20ft 0kts
26-Nov-18 08:57 32.732248 -117.177366 196 20ft 1kts
26-Nov-18 08:58 32.731257 -117.176282 106 22ft 8kts
26-Nov-18 08:59 32.730984 -117.175445 166 23ft 0kts
26-Nov-18 09:00 32.730983 -117.175444 166 23ft 0kts
26-Nov-18 09:01 32.730132 -117.175538 284 19ft 3kts
26-Nov-18 09:02 32.739040 -117.209142 291 1407ft 135kts
26-Nov-18 09:03 32.751403 -117.250741 291 3604ft 146kts
26-Nov-18 09:04 32.763148 -117.299340 255 5497ft 163kts
26-Nov-18 09:05 32.727662 -117.293192 130 7759ft 171kts
26-Nov-18 09:06 32.694316 -117.251638 132 9936ft 182kts
26-Nov-18 09:07 32.707025 -117.197655 48 10996ft 214kts
26-Nov-18 09:08 32.749181 -117.137878 47 10985ft 251kts
26-Nov-18 09:09 32.795579 -117.072797 47 10983ft 261kts
26-Nov-18 09:10 32.842591 -117.006800 47 10985ft 262kts
26-Nov-18 09:11 32.889582 -116.940724 47 10987ft 262kts
26-Nov-18 09:12 32.936692 -116.874362 47 10989ft 262kts
26-Nov-18 09:13 32.983554 -116.808243 48 10989ft 261kts
26-Nov-18 09:14 33.030308 -116.742151 48 10989ft 260kts
26-Nov-18 09:15 33.076807 -116.676294 48 10989ft 259kts
26-Nov-18 09:16 33.122953 -116.610823 49 10991ft 259kts
26-Nov-18 09:17 33.176667 -116.554591 35 10991ft 259kts
26-Nov-18 09:18 33.235185 -116.503717 35 10927ft 259kts
26-Nov-18 09:19 33.293434 -116.453042 35 10938ft 259kts
26-Nov-18 09:20 33.351478 -116.402462 35 10944ft 258kts
26-Nov-18 09:21 33.409317 -116.351968 35 10962ft 258kts
26-Nov-18 09:22 33.467109 -116.301429 36 10963ft 258kts
26-Nov-18 09:23 33.525046 -116.250677 36 10963ft 258kts
26-Nov-18 09:24 33.587748 -116.232374 322 10811ft 268kts
26-Nov-18 09:25 33.646337 -116.291028 321 9354ft 273kts
26-Nov-18 09:26 33.702088 -116.346686 321 7833ft 250kts
26-Nov-18 09:27 33.756747 -116.395106 349 6276ft 246kts
26-Nov-18 09:28 33.807129 -116.346407 51 4745ft 239kts
26-Nov-18 09:29 33.779910 -116.287717 180 3971ft 219kts
26-Nov-18 09:30 33.763105 -116.335828 302 4019ft 190kts
26-Nov-18 09:31 33.772699 -116.392476 274 3506ft 155kts
26-Nov-18 09:32 33.777310 -116.436643 282 2882ft 117kts
26-Nov-18 09:33 33.790387 -116.468959 307 2203ft 87kts
26-Nov-18 09:34 33.808089 -116.488212 321 1160ft 85kts
26-Nov-18 09:35 33.825682 -116.504077 326 480ft 46kts
26-Nov-18 09:36 33.828708 -116.508069 263 480ft 4kts
26-Nov-18 09:37 33.828636 -116.508309 232 480ft 5kts
26-Nov-18 09:38 33.825869 -116.507037 201 480ft 10kts
26-Nov-18 09:39 33.825376 -116.508804 287 480ft 3kts
26-Nov-18 09:40 33.825680 -116.509949 85 480ft 0kts
26-Nov-18 09:41 33.825680 -116.509949 85 480ft 0kts
26-Nov-18 09:42 33.825680 -116.509949 85 480ft 0kts
26-Nov-18 09:43 33.825680 -116.509949 85 480ft 0kts
26-Nov-18 09:44 33.825680 -116.509949 85 480ft 0kts
26-Nov-18 09:45 33.825680 -116.509949 85 480ft 0kts
26-Nov-18 09:46 33.825680 -116.509949 85 480ft 0kts
26-Nov-18 09:47 33.825680 -116.509949 85 480ft 0kts
26-Nov-18 09:48 33.825680 -116.509949 85 480ft 0kts
26-Nov-18 09:49 33.825680 -116.509949 85 480ft 0kts
26-Nov-18 09:50 33.825680 -116.509949 85 480ft 0kts
26-Nov-18 09:51 33.825680 -116.509949 85 480ft 0kts

Navigation Log

Ident Type
Flight plan parsing failed, navigation log unavailable